createdAt,value
2023-03-31T00:01:05.259Z,68.71
2023-03-31T00:03:10.936Z,69.75
2023-03-31T00:05:18.541Z,70.19
2023-03-31T00:07:24.645Z,70.72
2023-03-31T00:09:30.903Z,69.79
2023-03-31T00:11:33.573Z,69.67
2023-03-31T00:13:37.110Z,70.65
2023-03-31T00:15:40.994Z,70.59
2023-03-31T00:17:43.808Z,70.89
2023-03-31T00:19:50.054Z,70.71
2023-03-31T00:21:54.906Z,71.00
2023-03-31T00:24:00.767Z,70.38
2023-03-31T00:26:03.199Z,71.10
2023-03-31T00:28:06.283Z,71.12
2023-03-31T00:30:09.751Z,70.50
2023-03-31T00:32:12.580Z,70.38
2023-03-31T00:34:16.239Z,70.36
2023-03-31T00:36:21.825Z,70.44
2023-03-31T00:38:24.461Z,70.06
2023-03-31T00:40:27.286Z,70.52
2023-03-31T00:42:29.802Z,71.45
2023-03-31T00:44:34.857Z,71.65
2023-03-31T00:46:55.346Z,71.16
2023-03-31T00:48:58.954Z,70.33
2023-03-31T00:51:06.591Z,70.96
2023-03-31T00:53:13.241Z,71.14
2023-03-31T00:55:22.784Z,71.28
2023-03-31T00:57:30.050Z,73.05
2023-03-31T00:59:39.082Z,72.10
2023-03-31T01:01:46.402Z,72.08
2023-03-31T01:03:51.202Z,72.66
2023-03-31T01:06:05.923Z,72.33
2023-03-31T01:08:10.098Z,72.42
2023-03-31T01:10:12.853Z,72.65
2023-03-31T01:12:18.263Z,72.43
2023-03-31T01:14:21.567Z,72.24
2023-03-31T01:16:24.003Z,71.55
2023-03-31T01:18:28.393Z,71.75
2023-03-31T01:21:07.046Z,71.40
2023-03-31T01:23:28.000Z,72.78
2023-03-31T01:25:43.331Z,72.80
2023-03-31T01:27:49.226Z,73.05
2023-03-31T01:30:16.931Z,73.35
2023-03-31T01:32:43.372Z,73.22
2023-03-31T01:35:07.342Z,74.17
2023-03-31T01:37:24.420Z,74.42
2023-03-31T01:40:00.745Z,73.96
2023-03-31T01:42:21.127Z,74.45
2023-03-31T01:44:29.395Z,73.94
2023-03-31T01:46:37.407Z,73.36
2023-03-31T01:48:48.077Z,74.13
2023-03-31T01:50:58.596Z,73.65
2023-03-31T01:53:19.050Z,73.86
2023-03-31T01:55:30.247Z,74.04
2023-03-31T01:57:36.621Z,74.43
2023-03-31T01:59:46.766Z,74.08
2023-03-31T02:02:11.028Z,74.61
2023-03-31T02:04:31.667Z,74.56
2023-03-31T02:06:43.323Z,74.28
2023-03-31T02:08:51.653Z,74.10
2023-03-31T02:10:55.784Z,73.90
2023-03-31T02:13:02.549Z,73.57
2023-03-31T02:15:11.323Z,73.77
2023-03-31T02:17:20.933Z,73.69
2023-03-31T02:19:23.626Z,73.70
2023-03-31T02:21:26.629Z,74.05
2023-03-31T02:23:32.314Z,73.64
2023-03-31T02:25:41.425Z,73.77
2023-03-31T02:27:50.133Z,74.39
2023-03-31T02:29:54.507Z,74.22
2023-03-31T02:32:10.015Z,74.38
2023-03-31T02:34:13.332Z,74.09
2023-03-31T02:36:17.498Z,74.55
2023-03-31T02:38:20.702Z,74.06
2023-03-31T02:40:27.960Z,74.18
2023-03-31T02:42:30.980Z,74.31
2023-03-31T02:44:37.751Z,74.25
2023-03-31T02:46:41.761Z,74.66
2023-03-31T02:48:48.920Z,74.29
2023-03-31T02:51:20.024Z,74.04
2023-03-31T02:53:50.143Z,74.12
2023-03-31T02:56:01.028Z,74.19
2023-03-31T02:58:35.040Z,74.13
2023-03-31T03:00:54.173Z,73.99
2023-03-31T03:03:29.595Z,73.64
2023-03-31T03:05:50.560Z,73.55
2023-03-31T03:08:43.978Z,73.63
2023-03-31T03:10:55.108Z,72.81
2023-03-31T03:13:18.673Z,72.96
2023-03-31T03:15:46.609Z,73.08
2023-03-31T03:17:50.681Z,73.77
2023-03-31T03:20:00.398Z,73.69
2023-03-31T03:22:03.191Z,73.98
2023-03-31T03:24:06.210Z,73.93
2023-03-31T03:26:09.747Z,73.52
2023-03-31T03:28:12.469Z,73.13
2023-03-31T03:30:15.786Z,73.13
2023-03-31T03:32:18.891Z,72.50
2023-03-31T03:34:21.315Z,72.82
2023-03-31T03:36:24.183Z,72.60
2023-03-31T03:38:26.770Z,72.87
2023-03-31T03:40:28.968Z,73.35
2023-03-31T03:42:31.307Z,73.44
2023-03-31T03:44:33.782Z,72.79
2023-03-31T03:46:36.334Z,72.99
2023-03-31T03:48:39.113Z,72.68
2023-03-31T03:50:41.553Z,73.08
2023-03-31T03:52:45.127Z,72.96
2023-03-31T03:54:47.684Z,73.56
2023-03-31T03:56:50.209Z,74.22
2023-03-31T03:58:53.052Z,74.05
2023-03-31T04:00:57.476Z,74.14
2023-03-31T04:02:59.935Z,74.43
2023-03-31T04:05:02.634Z,74.15
2023-03-31T04:07:05.041Z,73.84
2023-03-31T04:09:07.423Z,74.12
2023-03-31T04:11:19.422Z,74.49
2023-03-31T04:13:21.909Z,73.87
2023-03-31T04:15:24.338Z,73.23
2023-03-31T04:17:32.930Z,73.80
2023-03-31T04:19:35.767Z,73.23
2023-03-31T04:21:45.242Z,74.17
2023-03-31T04:23:47.852Z,74.00
2023-03-31T04:25:53.548Z,73.65
2023-03-31T04:27:56.262Z,73.88
2023-03-31T04:29:58.532Z,74.72
2023-03-31T04:32:01.996Z,74.10
2023-03-31T04:34:07.240Z,74.24
2023-03-31T04:36:20.029Z,74.65
2023-03-31T04:38:27.851Z,73.90
2023-03-31T04:40:30.423Z,74.10
2023-03-31T04:42:32.855Z,73.12
2023-03-31T04:44:35.478Z,73.51
2023-03-31T04:46:38.060Z,73.58
2023-03-31T04:48:41.132Z,73.68
2023-03-31T04:50:43.814Z,74.31
2023-03-31T04:52:46.649Z,74.96
2023-03-31T04:54:49.024Z,74.78
2023-03-31T04:56:51.422Z,75.30
2023-03-31T04:58:54.877Z,75.12
2023-03-31T05:00:57.573Z,74.68
2023-03-31T05:03:00.712Z,74.36
2023-03-31T05:05:04.088Z,74.39
2023-03-31T05:07:06.601Z,74.85
2023-03-31T05:09:10.752Z,74.26
2023-03-31T05:11:14.033Z,74.52
2023-03-31T05:13:16.575Z,74.71
2023-03-31T05:15:19.273Z,74.65
2023-03-31T05:17:22.554Z,75.18
2023-03-31T05:19:25.506Z,75.03
2023-03-31T05:21:31.181Z,75.48
2023-03-31T05:23:33.792Z,75.37
2023-03-31T05:25:36.533Z,74.79
2023-03-31T05:27:39.083Z,73.59
2023-03-31T05:29:41.743Z,73.09
2023-03-31T05:31:44.014Z,72.97
2023-03-31T05:33:46.573Z,72.94
2023-03-31T05:35:49.698Z,72.92
2023-03-31T05:37:52.466Z,72.81
2023-03-31T05:39:54.806Z,73.07
2023-03-31T05:41:57.178Z,72.48
2023-03-31T05:44:00.063Z,72.78
2023-03-31T05:46:03.591Z,71.07
2023-03-31T05:48:07.432Z,71.85
2023-03-31T05:50:12.585Z,71.66
2023-03-31T05:52:17.486Z,70.72
2023-03-31T05:54:20.394Z,70.90
2023-03-31T05:56:23.390Z,70.36
2023-03-31T05:58:26.671Z,69.49
2023-03-31T06:00:29.256Z,68.39
2023-03-31T06:02:33.300Z,68.92
2023-03-31T06:04:37.828Z,69.90
2023-03-31T06:06:40.453Z,70.02
2023-03-31T06:08:45.998Z,68.30
2023-03-31T06:10:48.834Z,68.24
2023-03-31T06:12:51.535Z,66.63
2023-03-31T06:14:54.123Z,67.63
2023-03-31T06:16:57.819Z,66.33
2023-03-31T06:19:01.233Z,67.06
2023-03-31T06:21:05.796Z,67.17
2023-03-31T06:23:08.526Z,66.93
2023-03-31T06:25:11.368Z,66.23
2023-03-31T06:27:13.987Z,65.30
2023-03-31T06:29:16.684Z,64.19
2023-03-31T06:31:22.582Z,63.68
2023-03-31T06:33:25.106Z,64.29
2023-03-31T06:35:28.022Z,63.52
2023-03-31T06:37:30.945Z,64.16
2023-03-31T06:39:33.911Z,62.18
2023-03-31T06:41:36.389Z,61.66
2023-03-31T06:43:39.594Z,61.21
2023-03-31T06:45:42.533Z,61.30
2023-03-31T06:47:45.385Z,61.37
2023-03-31T06:49:47.787Z,61.65
2023-03-31T06:51:50.713Z,59.73
2023-03-31T06:53:53.511Z,60.23
2023-03-31T06:55:57.389Z,59.69
2023-03-31T06:58:00.656Z,57.79
2023-03-31T07:00:05.957Z,56.94
2023-03-31T07:02:11.421Z,57.60
2023-03-31T07:04:14.366Z,56.42
2023-03-31T07:06:17.067Z,57.58
2023-03-31T07:08:21.848Z,57.62
2023-03-31T07:10:26.271Z,57.27
2023-03-31T07:12:29.463Z,57.09
2023-03-31T07:14:33.462Z,56.98
2023-03-31T07:16:37.343Z,56.26
2023-03-31T07:18:42.517Z,56.20
2023-03-31T07:20:48.841Z,56.18
2023-03-31T07:22:51.512Z,57.33
2023-03-31T07:24:54.644Z,55.44
2023-03-31T07:26:57.130Z,55.97
2023-03-31T07:28:59.955Z,54.83
2023-03-31T07:31:03.438Z,54.64
2023-03-31T07:33:06.804Z,55.29
2023-03-31T07:35:12.418Z,55.63
2023-03-31T07:37:15.164Z,56.44
2023-03-31T07:39:18.269Z,56.97
2023-03-31T07:41:23.029Z,56.35
2023-03-31T07:43:25.802Z,55.63
2023-03-31T07:45:28.922Z,55.37
2023-03-31T07:47:31.991Z,54.89
2023-03-31T07:49:36.109Z,55.53
2023-03-31T07:51:39.562Z,55.85
2023-03-31T07:53:42.738Z,55.64
2023-03-31T07:55:45.363Z,54.59
2023-03-31T07:57:48.521Z,55.99
2023-03-31T07:59:51.302Z,56.09
2023-03-31T08:01:53.777Z,53.54
2023-03-31T08:03:57.307Z,53.67
2023-03-31T08:06:00.307Z,53.09
2023-03-31T08:08:03.132Z,50.41
2023-03-31T08:10:09.897Z,50.14
2023-03-31T08:12:12.506Z,50.42
2023-03-31T08:14:21.927Z,50.39
2023-03-31T08:16:30.304Z,50.18
2023-03-31T08:18:33.752Z,48.37
2023-03-31T08:20:39.555Z,48.88
2023-03-31T08:22:42.249Z,49.14
2023-03-31T08:24:45.025Z,47.74
2023-03-31T08:26:48.754Z,49.21
2023-03-31T08:28:52.720Z,48.81
2023-03-31T08:30:55.357Z,47.30
2023-03-31T08:32:57.967Z,47.39
2023-03-31T08:35:01.365Z,46.31
2023-03-31T08:37:05.726Z,47.74
2023-03-31T08:39:08.726Z,47.82
2023-03-31T08:41:23.395Z,48.25
2023-03-31T08:43:33.806Z,48.12
2023-03-31T08:45:44.320Z,47.65
2023-03-31T08:47:52.454Z,48.26
2023-03-31T08:50:00.597Z,48.53
2023-03-31T08:52:11.183Z,49.42
2023-03-31T08:54:41.177Z,48.78
2023-03-31T08:56:50.174Z,47.38
2023-03-31T08:58:53.505Z,48.42
2023-03-31T09:01:44.154Z,47.82
2023-03-31T09:04:06.826Z,47.22
2023-03-31T09:06:23.259Z,47.74
2023-03-31T09:08:45.284Z,47.68
2023-03-31T09:10:58.847Z,47.64
2023-03-31T09:13:10.232Z,47.44
2023-03-31T09:15:25.807Z,46.96
2023-03-31T09:17:31.203Z,47.83
2023-03-31T09:19:42.247Z,47.91
2023-03-31T09:21:50.583Z,48.45
2023-03-31T09:24:03.736Z,47.27
2023-03-31T09:26:23.283Z,48.54
2023-03-31T09:28:40.747Z,48.64
2023-03-31T09:30:44.183Z,49.39
2023-03-31T09:32:50.271Z,47.91
2023-03-31T09:34:58.051Z,48.58
2023-03-31T09:37:00.630Z,48.38
2023-03-31T09:39:03.620Z,48.16
2023-03-31T09:41:06.587Z,49.33
2023-03-31T09:43:22.764Z,48.09
2023-03-31T09:45:26.332Z,49.49
2023-03-31T09:47:53.555Z,49.06
2023-03-31T09:49:56.663Z,48.66
2023-03-31T09:52:07.628Z,47.89
2023-03-31T09:54:45.178Z,49.11
2023-03-31T09:56:53.018Z,47.89
2023-03-31T09:59:03.000Z,48.86
2023-03-31T10:01:10.387Z,48.63
2023-03-31T10:03:14.568Z,49.09
2023-03-31T10:05:43.683Z,49.36
2023-03-31T10:07:46.856Z,48.90
2023-03-31T10:09:50.091Z,49.16
2023-03-31T10:12:06.680Z,49.10
2023-03-31T10:14:16.002Z,48.67
2023-03-31T10:16:48.858Z,48.98
2023-03-31T10:18:51.940Z,48.75
2023-03-31T10:20:58.900Z,49.74
2023-03-31T10:23:35.628Z,48.10
2023-03-31T10:25:38.132Z,47.81
2023-03-31T10:27:44.660Z,49.04
2023-03-31T10:29:48.426Z,47.40
2023-03-31T10:31:51.222Z,48.32
2023-03-31T10:33:54.204Z,49.37
2023-03-31T10:35:59.759Z,49.44
2023-03-31T10:38:12.083Z,49.74
2023-03-31T10:40:16.577Z,50.20
2023-03-31T10:42:23.462Z,50.20
2023-03-31T10:44:37.153Z,49.73
2023-03-31T10:46:48.506Z,51.03
2023-03-31T10:48:52.076Z,51.07
2023-03-31T10:50:59.914Z,50.79
2023-03-31T10:53:11.581Z,50.66
2023-03-31T10:55:32.739Z,51.04
2023-03-31T10:57:56.149Z,51.41
2023-03-31T11:00:15.804Z,50.92
2023-03-31T11:02:49.089Z,51.73
2023-03-31T11:05:13.714Z,50.87
2023-03-31T11:07:29.847Z,51.34
2023-03-31T11:10:00.002Z,51.30
2023-03-31T11:12:26.343Z,51.12
2023-03-31T11:14:38.583Z,50.57
2023-03-31T11:17:00.567Z,51.32
2023-03-31T11:19:47.895Z,51.50
2023-03-31T11:22:02.913Z,51.17
2023-03-31T11:24:23.518Z,50.33
2023-03-31T11:26:46.883Z,49.69
2023-03-31T11:29:08.373Z,50.05
2023-03-31T11:31:44.874Z,49.08
2023-03-31T11:33:47.846Z,50.07
2023-03-31T11:36:00.472Z,49.19
2023-03-31T11:38:21.680Z,50.06
2023-03-31T11:40:43.862Z,49.29
2023-03-31T11:42:50.944Z,48.25
2023-03-31T11:45:00.781Z,49.10
2023-03-31T11:47:08.795Z,47.97
2023-03-31T11:49:21.747Z,48.04
2023-03-31T11:51:42.590Z,47.09
2023-03-31T11:53:47.494Z,48.15
2023-03-31T11:55:54.707Z,47.84
2023-03-31T11:57:57.430Z,47.83
2023-03-31T12:00:08.379Z,45.70
2023-03-31T12:02:24.227Z,45.68
2023-03-31T12:04:40.616Z,45.73
2023-03-31T12:06:47.271Z,46.24
2023-03-31T12:08:52.565Z,45.80
2023-03-31T12:11:02.454Z,44.25
2023-03-31T12:13:24.069Z,44.59
2023-03-31T12:15:30.127Z,44.95
2023-03-31T12:17:33.595Z,45.68
2023-03-31T12:20:00.964Z,45.83
2023-03-31T12:22:25.187Z,45.38
2023-03-31T12:24:29.862Z,46.04
2023-03-31T12:26:41.745Z,46.07
2023-03-31T12:28:47.516Z,46.46
2023-03-31T12:30:52.583Z,46.10
2023-03-31T12:32:59.827Z,45.63
2023-03-31T12:35:09.188Z,45.74
2023-03-31T12:37:55.942Z,46.91
2023-03-31T12:40:11.027Z,46.56
2023-03-31T12:42:34.587Z,46.96
2023-03-31T12:44:49.495Z,47.60
2023-03-31T12:47:13.117Z,48.33
2023-03-31T12:49:15.845Z,48.95
2023-03-31T12:51:38.550Z,49.37
2023-03-31T12:53:56.311Z,50.83
2023-03-31T12:56:00.261Z,53.26
2023-03-31T12:58:25.241Z,54.12
2023-03-31T13:00:30.337Z,54.17
2023-03-31T13:02:33.270Z,54.90
2023-03-31T13:04:38.498Z,54.02
2023-03-31T13:06:41.804Z,54.95
2023-03-31T13:08:58.506Z,55.59
2023-03-31T13:11:01.762Z,56.72
2023-03-31T13:13:15.012Z,55.63
2023-03-31T13:15:18.351Z,56.99
2023-03-31T13:17:40.271Z,57.28
2023-03-31T13:19:43.078Z,57.62
2023-03-31T13:21:57.793Z,57.72
2023-03-31T13:24:03.465Z,58.50
2023-03-31T13:26:07.348Z,59.41
2023-03-31T13:28:23.864Z,59.58
2023-03-31T13:30:41.771Z,59.97
2023-03-31T13:33:12.982Z,59.84
2023-03-31T13:35:24.415Z,60.40
2023-03-31T13:37:51.825Z,60.32
2023-03-31T13:40:12.700Z,61.13
2023-03-31T13:42:49.438Z,61.61
2023-03-31T13:44:55.833Z,62.82
2023-03-31T13:47:17.009Z,63.41
2023-03-31T13:50:02.648Z,63.66
2023-03-31T13:52:10.367Z,63.90
2023-03-31T13:54:12.961Z,63.64
2023-03-31T13:56:37.834Z,63.62
2023-03-31T13:58:49.516Z,63.40
2023-03-31T14:01:08.023Z,63.71
2023-03-31T14:03:32.238Z,64.25
2023-03-31T14:05:56.083Z,63.88
2023-03-31T14:08:04.546Z,63.93
2023-03-31T14:10:31.704Z,63.75
2023-03-31T14:12:38.151Z,63.02
2023-03-31T14:14:43.593Z,62.38
2023-03-31T14:16:48.605Z,63.25
2023-03-31T14:19:01.121Z,62.51
2023-03-31T14:21:43.883Z,62.31
2023-03-31T14:23:55.330Z,62.77
2023-03-31T14:26:31.083Z,62.80
2023-03-31T14:28:40.440Z,62.12
2023-03-31T14:30:47.251Z,62.90
2023-03-31T14:33:09.872Z,62.47
2023-03-31T14:35:29.700Z,62.38
2023-03-31T14:37:33.466Z,62.04
2023-03-31T14:39:47.031Z,61.96
2023-03-31T14:41:58.630Z,61.91
2023-03-31T14:44:05.929Z,61.38
2023-03-31T14:46:10.187Z,61.55
2023-03-31T14:48:16.570Z,61.97
2023-03-31T14:50:19.994Z,62.23
2023-03-31T14:52:26.646Z,61.84
2023-03-31T14:54:34.464Z,61.05
2023-03-31T14:56:41.912Z,61.86
2023-03-31T14:58:49.995Z,61.52
2023-03-31T15:00:53.853Z,62.03
2023-03-31T15:02:58.685Z,60.81
2023-03-31T15:05:08.495Z,61.63
2023-03-31T15:07:12.922Z,61.84
2023-03-31T15:09:24.413Z,61.44
2023-03-31T15:11:29.129Z,61.53
2023-03-31T15:13:46.889Z,61.23
2023-03-31T15:15:56.204Z,61.84
2023-03-31T15:17:59.365Z,61.18
2023-03-31T15:20:21.516Z,61.04
2023-03-31T15:22:32.577Z,61.36
2023-03-31T15:24:35.035Z,60.61
2023-03-31T15:27:08.955Z,60.37
2023-03-31T15:29:22.995Z,60.64
2023-03-31T15:31:27.864Z,60.80
2023-03-31T15:36:05.154Z,60.40
2023-03-31T15:38:13.322Z,60.54
2023-03-31T15:40:27.469Z,60.47
2023-03-31T15:42:30.075Z,60.53
2023-03-31T15:44:46.532Z,59.79
2023-03-31T15:46:58.550Z,59.91
2023-03-31T15:49:01.785Z,59.79
2023-03-31T15:51:36.022Z,59.85
2023-03-31T15:53:47.501Z,59.59
2023-03-31T15:55:56.295Z,60.18
2023-03-31T15:58:01.128Z,60.52
2023-03-31T16:00:07.671Z,61.43
2023-03-31T16:02:21.133Z,62.48
2023-03-31T16:04:25.515Z,63.11
2023-03-31T16:06:49.785Z,63.60
2023-03-31T16:09:15.847Z,64.02
2023-03-31T16:11:28.712Z,64.27
2023-03-31T16:13:32.674Z,64.64
2023-03-31T16:15:45.671Z,64.96
2023-03-31T16:17:54.744Z,64.95
2023-03-31T16:20:07.461Z,65.48
2023-03-31T16:22:16.468Z,65.26
2023-03-31T16:24:21.639Z,65.55
2023-03-31T16:26:26.214Z,64.62
2023-03-31T16:28:37.090Z,63.69
2023-03-31T16:30:41.937Z,64.21
2023-03-31T16:33:09.897Z,63.90
2023-03-31T16:35:12.485Z,64.10
2023-03-31T16:37:14.924Z,64.04
2023-03-31T16:39:17.335Z,63.54
2023-03-31T16:41:21.540Z,63.40
2023-03-31T16:43:26.893Z,63.67
2023-03-31T16:45:29.624Z,63.08
2023-03-31T16:49:58.679Z,61.58
2023-03-31T16:52:01.174Z,61.45
2023-03-31T16:54:03.580Z,61.53
2023-03-31T16:56:10.197Z,61.27
2023-03-31T16:58:13.029Z,61.37
2023-03-31T17:00:16.018Z,61.66
2023-03-31T17:02:18.719Z,61.86
2023-03-31T17:04:23.003Z,62.01
2023-03-31T17:06:25.744Z,61.69
2023-03-31T17:08:28.474Z,62.27
2023-03-31T17:10:31.147Z,62.24
2023-03-31T17:12:33.898Z,62.06
2023-03-31T17:14:36.818Z,62.15
2023-03-31T17:16:48.241Z,62.23
2023-03-31T17:18:51.596Z,61.99
2023-03-31T17:20:54.090Z,62.73
2023-03-31T17:22:56.609Z,62.27
2023-03-31T17:24:59.584Z,62.48
2023-03-31T17:27:02.734Z,62.29
2023-03-31T17:29:06.084Z,62.62
2023-03-31T17:31:18.558Z,62.35
2023-03-31T17:33:22.682Z,63.33
2023-03-31T17:35:26.874Z,63.94
2023-03-31T17:37:29.703Z,63.57
2023-03-31T17:39:32.546Z,63.64
2023-03-31T17:41:35.452Z,64.10
2023-03-31T17:43:38.528Z,64.28
2023-03-31T17:45:41.891Z,63.55
2023-03-31T17:47:45.551Z,64.28
2023-03-31T17:49:49.188Z,64.45
2023-03-31T17:51:53.297Z,64.93
2023-03-31T17:53:56.683Z,64.43
2023-03-31T17:55:59.434Z,63.94
2023-03-31T17:58:03.119Z,64.56
2023-03-31T18:00:09.156Z,64.63
2023-03-31T18:02:15.795Z,64.20
2023-03-31T18:04:18.601Z,64.66
2023-03-31T18:06:21.403Z,64.81
2023-03-31T18:08:24.352Z,64.95
2023-03-31T18:10:27.059Z,64.27
2023-03-31T18:12:30.223Z,66.30
2023-03-31T18:14:33.065Z,67.01
2023-03-31T18:16:37.479Z,66.91
2023-03-31T18:18:40.611Z,66.64
2023-03-31T18:20:43.617Z,66.88
2023-03-31T18:22:46.221Z,68.06
2023-03-31T18:24:49.182Z,68.08
2023-03-31T18:26:52.132Z,69.54
2023-03-31T18:28:55.345Z,69.43
2023-03-31T18:30:58.344Z,69.11
2023-03-31T18:33:01.360Z,68.19
2023-03-31T18:35:06.004Z,68.86
2023-03-31T18:37:09.487Z,70.12
2023-03-31T18:39:13.195Z,70.34
2023-03-31T18:41:18.098Z,71.04
2023-03-31T18:43:25.017Z,70.84
2023-03-31T18:45:28.989Z,71.40
2023-03-31T18:47:32.138Z,71.05
2023-03-31T18:49:34.899Z,71.11
2023-03-31T18:51:37.620Z,69.63
2023-03-31T18:53:40.586Z,70.89
2023-03-31T18:55:43.380Z,70.11
2023-03-31T18:57:46.260Z,69.30
2023-03-31T18:59:49.060Z,69.19
2023-03-31T19:01:51.652Z,69.31
2023-03-31T19:03:54.362Z,69.42
2023-03-31T19:06:10.439Z,68.07
2023-03-31T19:08:13.595Z,69.22
2023-03-31T19:10:16.154Z,69.38
2023-03-31T19:12:18.781Z,70.00
2023-03-31T19:14:21.346Z,69.02
2023-03-31T19:16:27.931Z,70.07
2023-03-31T19:18:30.900Z,69.98
2023-03-31T19:20:33.551Z,69.17
2023-03-31T19:22:36.549Z,69.76
2023-03-31T19:24:40.387Z,68.88
2023-03-31T19:26:44.064Z,68.76
2023-03-31T19:28:48.974Z,69.02
2023-03-31T19:30:54.003Z,69.07
2023-03-31T19:32:56.805Z,69.43
2023-03-31T19:34:59.751Z,69.20
2023-03-31T19:37:03.023Z,70.09
2023-03-31T19:39:09.576Z,69.52
2023-03-31T19:41:12.336Z,69.56
2023-03-31T19:43:21.495Z,69.43
2023-03-31T19:45:24.142Z,69.94
2023-03-31T19:47:27.200Z,69.14
2023-03-31T19:49:29.945Z,69.18
2023-03-31T19:51:32.348Z,69.19
2023-03-31T19:53:37.465Z,68.77
2023-03-31T19:55:42.521Z,68.77
2023-03-31T19:57:46.065Z,68.99
2023-03-31T19:59:48.752Z,69.94
2023-03-31T20:01:51.970Z,69.75
2023-03-31T20:03:55.331Z,70.41
2023-03-31T20:06:09.449Z,70.79
2023-03-31T20:08:12.641Z,70.69
2023-03-31T20:10:15.295Z,70.38
2023-03-31T20:12:18.020Z,70.00
2023-03-31T20:14:24.455Z,70.25
2023-03-31T20:16:30.314Z,69.96
2023-03-31T20:18:33.305Z,69.83
2023-03-31T20:20:35.883Z,69.63
2023-03-31T20:22:41.010Z,69.92
2023-03-31T20:24:43.975Z,69.87
2023-03-31T20:26:47.279Z,69.69
2023-03-31T20:28:49.995Z,69.55
2023-03-31T20:30:56.254Z,69.57
2023-03-31T20:32:59.427Z,70.22
2023-03-31T20:35:02.486Z,68.92
2023-03-31T20:37:04.960Z,69.09
2023-03-31T20:39:08.978Z,69.42
2023-03-31T20:41:11.857Z,69.14
2023-03-31T20:43:14.479Z,69.27
2023-03-31T20:45:17.128Z,69.51
2023-03-31T20:47:20.415Z,69.67
2023-03-31T20:49:22.825Z,69.87
2023-03-31T20:51:30.633Z,69.88
2023-03-31T20:53:42.272Z,69.91
2023-03-31T20:55:45.109Z,69.55
2023-03-31T20:57:48.203Z,69.77
2023-03-31T20:59:51.026Z,70.06
2023-03-31T21:01:53.638Z,70.21
2023-03-31T21:04:01.471Z,70.54
2023-03-31T21:06:07.123Z,70.94
2023-03-31T21:08:14.569Z,70.94
2023-03-31T21:10:17.373Z,70.30
2023-03-31T21:12:20.363Z,69.98
2023-03-31T21:14:22.889Z,69.48
2023-03-31T21:16:25.720Z,69.41
2023-03-31T21:18:30.824Z,70.16
2023-03-31T21:20:34.274Z,69.17
2023-03-31T21:22:36.731Z,69.53
2023-03-31T21:24:39.080Z,70.18
2023-03-31T21:26:42.136Z,70.41
2023-03-31T21:28:46.149Z,69.89
2023-03-31T21:31:08.531Z,70.30
2023-03-31T21:33:11.180Z,70.20
2023-03-31T21:35:14.570Z,70.14
2023-03-31T21:37:17.096Z,69.70
2023-03-31T21:39:19.746Z,69.75
2023-03-31T21:41:25.892Z,69.09
2023-03-31T21:43:29.412Z,69.37
2023-03-31T21:45:32.488Z,69.26
2023-03-31T21:47:35.461Z,69.33
2023-03-31T21:49:38.172Z,69.77
2023-03-31T21:51:41.150Z,69.54
2023-03-31T21:53:43.810Z,69.97
2023-03-31T21:55:46.395Z,69.21
2023-03-31T21:57:49.314Z,69.62
2023-03-31T21:59:51.972Z,68.74
2023-03-31T22:01:54.370Z,68.17
2023-03-31T22:03:57.044Z,68.46
2023-03-31T22:06:00.532Z,69.23
2023-03-31T22:08:02.999Z,69.95
2023-03-31T22:10:06.784Z,70.25
2023-03-31T22:12:09.385Z,70.67
2023-03-31T22:14:12.085Z,70.91
2023-03-31T22:16:18.654Z,70.80
2023-03-31T22:18:22.375Z,70.56
2023-03-31T22:20:25.443Z,70.67
2023-03-31T22:22:27.917Z,70.72
2023-03-31T22:24:30.856Z,70.29
2023-03-31T22:26:33.815Z,70.51
2023-03-31T22:28:36.371Z,70.55
2023-03-31T22:30:40.048Z,70.71
2023-03-31T22:32:42.631Z,69.80
2023-03-31T22:34:45.114Z,70.26
2023-03-31T22:36:47.981Z,70.36
2023-03-31T22:38:50.970Z,69.92
2023-03-31T22:40:54.299Z,70.02
2023-03-31T22:42:58.719Z,70.41
2023-03-31T22:45:01.745Z,69.66
2023-03-31T22:47:05.051Z,69.41
2023-03-31T22:49:07.724Z,69.79
2023-03-31T22:51:12.255Z,69.32
2023-03-31T22:53:15.456Z,70.20
2023-03-31T22:55:18.017Z,70.91
2023-03-31T22:57:20.833Z,70.88
2023-03-31T22:59:24.021Z,70.73
2023-03-31T23:01:27.006Z,70.45
2023-03-31T23:03:30.216Z,70.76
2023-03-31T23:05:35.268Z,69.83
2023-03-31T23:07:38.832Z,69.90
2023-03-31T23:09:42.021Z,69.62
2023-03-31T23:11:48.102Z,69.85
2023-03-31T23:13:51.474Z,68.82
2023-03-31T23:15:54.013Z,68.17
2023-03-31T23:17:56.400Z,68.30
2023-03-31T23:19:58.943Z,67.78
2023-03-31T23:22:03.162Z,68.08
2023-03-31T23:24:06.322Z,68.15
2023-03-31T23:26:09.625Z,68.00
2023-03-31T23:28:12.494Z,68.26
2023-03-31T23:30:16.260Z,68.34
2023-03-31T23:32:18.726Z,68.62
2023-03-31T23:34:21.580Z,68.85
2023-03-31T23:36:25.943Z,68.79
2023-03-31T23:38:32.598Z,69.04
2023-03-31T23:40:35.013Z,69.45
2023-03-31T23:42:37.475Z,69.24
2023-03-31T23:44:40.046Z,69.44
2023-03-31T23:46:44.791Z,69.88
2023-03-31T23:48:47.392Z,69.46
2023-03-31T23:50:49.881Z,69.29
2023-03-31T23:52:53.180Z,69.86
2023-03-31T23:54:56.157Z,69.58
2023-03-31T23:56:58.635Z,70.33
2023-03-31T23:59:01.694Z,70.80
